createdAt,value
2023-04-02T00:01:34.560Z,10.87
2023-04-02T00:04:22.535Z,9.77
2023-04-02T00:07:16.719Z,8.20
2023-04-02T00:12:24.156Z,10.20
2023-04-02T00:14:54.670Z,8.13
2023-04-02T00:17:38.764Z,10.05
2023-04-02T00:20:07.891Z,6.78
2023-04-02T00:22:34.457Z,12.68
2023-04-02T00:25:23.130Z,8.45
2023-04-02T00:27:50.243Z,11.03
2023-04-02T00:30:17.193Z,9.07
2023-04-02T00:32:44.004Z,10.27
2023-04-02T00:35:29.291Z,9.02
2023-04-02T00:37:57.190Z,12.02
2023-04-02T00:40:44.699Z,9.47
2023-04-02T00:43:16.646Z,9.60
2023-04-02T00:46:04.121Z,10.45
2023-04-02T00:48:33.559Z,10.37
2023-04-02T00:53:52.405Z,11.23
2023-04-02T00:56:46.324Z,14.90
2023-04-02T00:59:29.367Z,9.43
2023-04-02T01:02:14.849Z,10.20
2023-04-02T01:04:41.793Z,9.50
2023-04-02T01:07:11.109Z,9.45
2023-04-02T01:10:11.529Z,9.52
2023-04-02T01:12:38.154Z,10.65
2023-04-02T01:15:10.766Z,10.67
2023-04-02T01:17:49.325Z,9.05
2023-04-02T01:20:33.972Z,6.70
2023-04-02T01:23:05.757Z,11.82
2023-04-02T01:25:46.143Z,10.18
2023-04-02T01:28:21.118Z,6.63
2023-04-02T01:30:52.917Z,9.25
2023-04-02T01:33:23.241Z,9.57
2023-04-02T01:36:05.762Z,7.35
2023-04-02T01:38:41.780Z,6.95
2023-04-02T01:41:27.066Z,7.17
2023-04-02T01:44:00.929Z,8.60
2023-04-02T01:46:33.192Z,6.03
2023-04-02T01:49:20.590Z,8.65
2023-04-02T01:51:53.107Z,6.97
2023-04-02T01:54:21.470Z,8.30
2023-04-02T01:56:48.554Z,8.80
2023-04-02T01:59:22.209Z,8.05
2023-04-02T02:04:25.757Z,9.27
2023-04-02T02:06:52.559Z,11.27
2023-04-02T02:09:45.919Z,8.85
2023-04-02T02:12:21.359Z,10.98
2023-04-02T02:14:49.961Z,7.10
2023-04-02T02:17:35.787Z,13.57
2023-04-02T02:20:10.947Z,9.63
2023-04-02T02:22:40.032Z,11.40
2023-04-02T02:25:14.349Z,7.22
2023-04-02T02:27:47.013Z,8.45
2023-04-02T02:30:22.446Z,13.33
2023-04-02T02:33:00.714Z,11.27
2023-04-02T02:35:35.182Z,9.30
2023-04-02T02:38:29.333Z,11.27
2023-04-02T02:41:01.950Z,8.52
2023-04-02T02:43:28.761Z,12.10
2023-04-02T02:45:56.929Z,7.78
2023-04-02T02:48:34.061Z,5.78
2023-04-02T02:51:07.945Z,7.85
2023-04-02T02:53:46.469Z,6.82
2023-04-02T02:56:29.061Z,7.47
2023-04-02T02:59:00.146Z,9.40
2023-04-02T03:04:10.770Z,7.30
2023-04-02T03:06:37.668Z,11.52
2023-04-02T03:09:34.655Z,7.73
2023-04-02T03:12:24.647Z,8.32
2023-04-02T03:14:57.661Z,4.88
2023-04-02T03:17:33.894Z,6.07
2023-04-02T03:20:11.256Z,9.65
2023-04-02T03:23:06.747Z,6.90
2023-04-02T03:25:53.236Z,6.25
2023-04-02T03:28:25.992Z,7.72
2023-04-02T03:31:01.158Z,7.32
2023-04-02T03:33:35.960Z,6.68
2023-04-02T03:36:30.376Z,8.97
2023-04-02T03:39:22.921Z,5.72
2023-04-02T03:41:55.088Z,7.72
2023-04-02T03:44:33.147Z,9.68
2023-04-02T03:47:10.277Z,7.57
2023-04-02T03:49:44.524Z,6.73
2023-04-02T03:52:24.117Z,5.57
2023-04-02T03:54:54.121Z,5.32
2023-04-02T03:58:16.377Z,6.72
2023-04-02T04:01:17.509Z,6.18
2023-04-02T04:04:06.937Z,6.33
2023-04-02T04:06:35.773Z,5.82
2023-04-02T04:09:10.975Z,4.85
2023-04-02T04:11:44.739Z,6.40
2023-04-02T04:14:33.537Z,7.60
2023-04-02T04:17:24.701Z,6.13
2023-04-02T04:19:59.453Z,6.32
2023-04-02T04:22:31.852Z,7.57
2023-04-02T04:25:50.648Z,6.40
2023-04-02T04:28:29.620Z,9.77
2023-04-02T04:31:18.069Z,4.37
2023-04-02T04:34:03.156Z,5.18
2023-04-02T04:36:35.385Z,6.15
2023-04-02T04:39:23.977Z,6.55
2023-04-02T04:41:52.445Z,5.70
2023-04-02T04:44:35.728Z,7.03
2023-04-02T04:47:15.490Z,10.70
2023-04-02T04:49:56.145Z,4.85
2023-04-02T04:52:29.467Z,5.70
2023-04-02T04:54:56.033Z,7.45
2023-04-02T04:57:31.140Z,6.23
2023-04-02T05:00:07.186Z,9.73
2023-04-02T05:02:48.945Z,5.00
2023-04-02T05:05:29.286Z,3.50
2023-04-02T05:08:04.349Z,7.07
2023-04-02T05:10:41.007Z,4.50
2023-04-02T05:13:19.170Z,7.82
2023-04-02T05:16:09.681Z,7.68
2023-04-02T05:18:43.289Z,5.88
2023-04-02T05:21:35.660Z,4.75
2023-04-02T05:24:05.068Z,3.97
2023-04-02T05:26:41.877Z,7.68
2023-04-02T05:29:18.942Z,3.85
2023-04-02T05:32:10.938Z,5.75
2023-04-02T05:34:39.251Z,3.58
2023-04-02T05:37:09.098Z,3.43
2023-04-02T05:39:35.710Z,2.67
2023-04-02T05:42:08.396Z,4.88
2023-04-02T05:44:41.758Z,5.60
2023-04-02T05:47:14.287Z,2.13
2023-04-02T05:49:44.667Z,4.23
2023-04-02T05:52:31.933Z,2.67
2023-04-02T05:55:16.608Z,3.10
2023-04-02T05:58:13.351Z,3.10
2023-04-02T06:00:38.724Z,6.90
2023-04-02T06:03:16.103Z,1.30
2023-04-02T06:06:01.183Z,5.78
2023-04-02T06:08:39.787Z,3.55
2023-04-02T06:11:32.114Z,2.03
2023-04-02T06:13:59.779Z,1.05
2023-04-02T06:16:46.197Z,1.63
2023-04-02T06:19:26.592Z,3.17
2023-04-02T06:22:00.580Z,6.70
2023-04-02T06:24:29.948Z,4.15
2023-04-02T06:27:03.330Z,2.22
2023-04-02T06:29:40.536Z,6.03
2023-04-02T06:32:26.950Z,2.67
2023-04-02T06:34:54.049Z,5.90
2023-04-02T06:37:43.379Z,3.85
2023-04-02T06:40:43.998Z,2.75
2023-04-02T06:43:33.624Z,3.33
2023-04-02T06:46:06.180Z,7.22
2023-04-02T06:48:37.852Z,4.35
2023-04-02T06:51:13.465Z,5.75
2023-04-02T06:53:59.196Z,3.95
2023-04-02T06:56:54.500Z,3.07
2023-04-02T06:59:21.195Z,3.28
2023-04-02T07:02:06.710Z,4.63
2023-04-02T07:04:54.853Z,3.65
2023-04-02T07:07:21.388Z,3.15
2023-04-02T07:09:51.324Z,2.73
2023-04-02T07:12:33.172Z,1.92
2023-04-02T07:14:59.968Z,8.25
2023-04-02T07:17:48.823Z,3.60
2023-04-02T07:20:34.455Z,3.50
2023-04-02T07:23:00.988Z,7.53
2023-04-02T07:25:27.451Z,2.65
2023-04-02T07:27:56.756Z,2.50
2023-04-02T07:30:23.584Z,4.68
2023-04-02T07:33:05.649Z,3.30
2023-04-02T07:35:32.449Z,5.13
2023-04-02T07:37:59.099Z,2.47
2023-04-02T07:40:25.751Z,1.83
2023-04-02T07:43:09.937Z,4.40
2023-04-02T07:45:36.708Z,3.80
2023-04-02T07:48:18.592Z,3.17
2023-04-02T07:50:45.081Z,5.53
2023-04-02T07:53:41.849Z,2.58
2023-04-02T07:56:25.145Z,4.10
2023-04-02T07:58:51.708Z,3.03
2023-04-02T08:01:49.543Z,3.97
2023-04-02T08:04:19.643Z,7.25
2023-04-02T08:06:47.188Z,4.97
2023-04-02T08:09:26.179Z,3.85
2023-04-02T08:11:52.590Z,3.80
2023-04-02T08:14:19.082Z,3.10
2023-04-02T08:16:52.817Z,4.95
2023-04-02T08:19:19.977Z,5.50
2023-04-02T08:21:52.709Z,2.85
2023-04-02T08:24:19.497Z,4.78
2023-04-02T08:27:02.335Z,2.53
2023-04-02T08:29:34.746Z,4.80
2023-04-02T08:32:01.926Z,6.00
2023-04-02T08:34:47.819Z,3.40
2023-04-02T08:37:15.134Z,2.20
2023-04-02T08:39:54.231Z,7.27
2023-04-02T08:42:26.658Z,3.92
2023-04-02T08:47:51.196Z,4.05
2023-04-02T08:53:28.151Z,3.20
2023-04-02T08:56:18.431Z,2.42
2023-04-02T08:58:50.657Z,6.57
2023-04-02T09:01:19.912Z,3.17
2023-04-02T09:04:58.589Z,4.88
2023-04-02T09:07:27.039Z,3.33
2023-04-02T09:09:53.468Z,2.38
2023-04-02T09:12:42.817Z,2.95
2023-04-02T09:15:31.471Z,2.67
2023-04-02T09:18:18.567Z,2.95
2023-04-02T09:20:45.634Z,4.40
2023-04-02T09:26:22.934Z,2.55
2023-04-02T09:31:44.347Z,3.45
2023-04-02T09:34:29.750Z,1.37
2023-04-02T09:36:56.792Z,3.30
2023-04-02T09:39:27.853Z,2.20
2023-04-02T09:45:31.211Z,1.58
2023-04-02T09:47:58.859Z,3.60
2023-04-02T09:50:28.782Z,4.05
2023-04-02T09:52:55.966Z,3.08
2023-04-02T09:55:28.970Z,2.70
2023-04-02T09:58:23.802Z,5.88
2023-04-02T10:00:53.089Z,3.73
2023-04-02T10:03:27.366Z,3.47
2023-04-02T10:06:07.674Z,2.70
2023-04-02T10:08:35.789Z,2.40
2023-04-02T10:11:19.205Z,2.05
2023-04-02T10:17:15.866Z,1.50
2023-04-02T10:22:56.070Z,0.90
2023-04-02T10:25:44.342Z,1.05
2023-04-02T10:28:24.340Z,2.03
2023-04-02T10:31:33.605Z,2.53
2023-04-02T10:34:24.808Z,1.88
2023-04-02T10:37:16.046Z,1.55
2023-04-02T10:40:09.830Z,3.15
2023-04-02T10:43:07.622Z,3.57
2023-04-02T10:45:49.872Z,5.28
2023-04-02T10:49:02.153Z,2.10
2023-04-02T10:51:43.979Z,3.10
2023-04-02T10:54:59.873Z,2.17
2023-04-02T10:57:29.347Z,1.50
2023-04-02T11:00:22.807Z,2.47
2023-04-02T11:03:13.663Z,1.95
2023-04-02T11:06:24.645Z,1.63
2023-04-02T11:08:57.304Z,2.78
2023-04-02T11:11:33.054Z,1.93
2023-04-02T11:14:05.536Z,2.55
2023-04-02T11:16:51.942Z,3.05
2023-04-02T11:19:18.478Z,7.10
2023-04-02T11:22:03.135Z,5.13
2023-04-02T11:24:32.977Z,2.70
2023-04-02T11:27:11.727Z,1.85
2023-04-02T11:30:02.784Z,2.47
2023-04-02T11:32:52.243Z,1.15
2023-04-02T11:38:23.643Z,3.23
2023-04-02T11:41:08.214Z,0.73
2023-04-02T11:43:35.377Z,2.00
2023-04-02T11:46:17.173Z,1.83
2023-04-02T11:49:33.665Z,1.67
2023-04-02T11:52:23.141Z,2.30
2023-04-02T11:54:59.940Z,1.98
2023-04-02T11:57:57.681Z,3.05
2023-04-02T12:01:02.294Z,1.98
2023-04-02T12:04:06.940Z,2.15
2023-04-02T12:07:04.787Z,1.80
2023-04-02T12:09:55.468Z,2.78
2023-04-02T12:12:43.220Z,1.23
2023-04-02T12:15:43.051Z,2.97
2023-04-02T12:18:29.579Z,2.63
2023-04-02T12:20:57.225Z,3.47
2023-04-02T12:23:45.073Z,4.28
2023-04-02T12:26:42.357Z,3.42
2023-04-02T12:29:26.830Z,1.40
2023-04-02T12:31:55.439Z,2.85
2023-04-02T12:34:37.098Z,2.10
2023-04-02T12:37:05.404Z,2.85
2023-04-02T12:42:27.628Z,3.08
2023-04-02T12:45:02.636Z,1.30
2023-04-02T12:47:48.668Z,3.17
2023-04-02T12:50:17.235Z,2.20
2023-04-02T12:53:02.116Z,1.77
2023-04-02T12:55:28.902Z,5.28
2023-04-02T12:58:47.517Z,3.65
2023-04-02T13:01:38.170Z,2.60
2023-04-02T13:04:12.390Z,2.05
2023-04-02T13:06:49.923Z,2.28
2023-04-02T13:09:41.720Z,6.50
2023-04-02T13:16:00.972Z,2.23
2023-04-02T13:18:40.372Z,2.17
2023-04-02T13:21:36.025Z,1.73
2023-04-02T13:24:02.563Z,2.40
2023-04-02T13:26:49.605Z,1.95
2023-04-02T13:29:26.723Z,2.23
2023-04-02T13:34:36.591Z,2.28
2023-04-02T13:37:03.260Z,3.28
2023-04-02T13:39:30.478Z,3.10
2023-04-02T13:42:03.481Z,2.13
2023-04-02T13:44:51.715Z,2.53
2023-04-02T13:47:18.176Z,3.42
2023-04-02T13:49:44.693Z,2.10
2023-04-02T13:52:23.210Z,2.97
2023-04-02T13:55:10.643Z,1.20
2023-04-02T13:57:37.458Z,2.45
2023-04-02T14:00:05.105Z,1.65
2023-04-02T14:03:22.843Z,1.75
2023-04-02T14:10:16.492Z,1.90
2023-04-02T14:12:52.431Z,2.45
2023-04-02T14:15:38.544Z,0.95
2023-04-02T14:18:24.179Z,3.05
2023-04-02T14:21:38.533Z,1.88
2023-04-02T14:24:31.297Z,1.50
2023-04-02T14:27:04.348Z,2.35
2023-04-02T14:30:18.500Z,2.78
2023-04-02T14:33:05.585Z,2.22
2023-04-02T14:35:54.580Z,1.80
2023-04-02T14:38:42.084Z,1.33
2023-04-02T14:41:55.992Z,4.38
2023-04-02T14:44:27.784Z,2.42
2023-04-02T14:47:11.670Z,2.28
2023-04-02T14:49:44.134Z,1.00
2023-04-02T14:52:19.110Z,1.33
2023-04-02T14:55:10.106Z,1.77
2023-04-02T14:57:41.081Z,1.90
2023-04-02T15:00:28.854Z,3.00
2023-04-02T15:03:15.259Z,1.48
2023-04-02T15:06:03.578Z,1.00
2023-04-02T15:08:37.027Z,1.45
2023-04-02T15:11:56.724Z,2.10
2023-04-02T15:14:37.280Z,1.52
2023-04-02T15:17:03.702Z,2.13
2023-04-02T15:19:30.264Z,4.73
2023-04-02T15:22:28.732Z,1.85
2023-04-02T15:25:04.268Z,4.32
2023-04-02T15:28:04.076Z,1.15
2023-04-02T15:30:38.024Z,2.63
2023-04-02T15:33:30.387Z,2.77
2023-04-02T15:36:04.204Z,2.70
2023-04-02T15:39:15.660Z,1.05
2023-04-02T15:41:56.415Z,1.73
2023-04-02T15:44:22.834Z,1.27
2023-04-02T15:46:55.920Z,5.70
2023-04-02T15:49:42.889Z,3.05
2023-04-02T15:52:38.454Z,2.88
2023-04-02T15:55:45.393Z,2.28
2023-04-02T15:58:21.827Z,1.77
2023-04-02T16:01:11.732Z,1.57
2023-04-02T16:03:47.441Z,1.88
2023-04-02T16:06:28.232Z,2.05
2023-04-02T16:09:27.083Z,2.13
2023-04-02T16:12:01.223Z,1.58
2023-04-02T16:14:31.676Z,2.20
2023-04-02T16:17:21.491Z,1.35
2023-04-02T16:19:56.585Z,3.17
2023-04-02T16:22:29.167Z,1.70
2023-04-02T16:25:17.208Z,4.18
2023-04-02T16:27:54.125Z,5.03
2023-04-02T16:30:35.299Z,0.95
2023-04-02T16:33:23.032Z,2.47
2023-04-02T16:35:52.251Z,2.67
2023-04-02T16:38:25.332Z,1.35
2023-04-02T16:41:10.522Z,0.97
2023-04-02T16:44:08.135Z,2.13
2023-04-02T16:47:01.877Z,1.15
2023-04-02T16:49:46.080Z,2.72
2023-04-02T16:52:24.582Z,1.00
2023-04-02T16:55:12.579Z,2.60
2023-04-02T16:58:17.469Z,2.78
2023-04-02T17:01:11.925Z,2.40
2023-04-02T17:03:56.889Z,1.52
2023-04-02T17:06:40.949Z,1.75
2023-04-02T17:09:35.054Z,1.50
2023-04-02T17:12:15.913Z,5.07
2023-04-02T17:14:51.053Z,4.22
2023-04-02T17:17:17.852Z,2.10
2023-04-02T17:19:45.052Z,4.13
2023-04-02T17:22:27.108Z,1.07
2023-04-02T17:25:04.864Z,1.88
2023-04-02T17:27:35.515Z,1.50
2023-04-02T17:30:17.351Z,3.42
2023-04-02T17:32:43.859Z,1.48
2023-04-02T17:35:40.184Z,1.17
2023-04-02T17:38:40.378Z,1.98
2023-04-02T17:41:40.493Z,2.33
2023-04-02T17:44:46.420Z,1.52
2023-04-02T17:47:22.575Z,1.20
2023-04-02T17:50:19.834Z,2.73
2023-04-02T17:52:56.125Z,2.53
2023-04-02T17:55:37.862Z,2.30
2023-04-02T17:58:23.665Z,1.50
2023-04-02T18:01:02.082Z,3.72
2023-04-02T18:03:47.669Z,2.57
2023-04-02T18:06:19.680Z,1.92
2023-04-02T18:09:10.639Z,1.77
2023-04-02T18:12:02.230Z,4.30
2023-04-02T18:14:50.798Z,1.25
2023-04-02T18:17:36.193Z,2.30
2023-04-02T18:20:21.301Z,2.28
2023-04-02T18:23:03.268Z,1.95
2023-04-02T18:25:43.993Z,1.67
2023-04-02T18:28:42.345Z,1.50
2023-04-02T18:31:40.795Z,3.00
2023-04-02T18:34:28.574Z,1.83
2023-04-02T18:37:14.892Z,3.53
2023-04-02T18:39:58.608Z,2.92
2023-04-02T18:42:46.059Z,2.78
2023-04-02T18:45:28.531Z,2.67
2023-04-02T18:48:14.525Z,0.90
2023-04-02T18:50:45.985Z,2.03
2023-04-02T18:53:18.501Z,1.65
2023-04-02T18:55:50.165Z,1.10
2023-04-02T18:58:25.736Z,1.33
2023-04-02T19:00:52.529Z,2.03
2023-04-02T19:03:28.606Z,4.20
2023-04-02T19:06:05.602Z,0.88
2023-04-02T19:08:47.033Z,1.88
2023-04-02T19:11:17.335Z,3.10
2023-04-02T19:13:48.346Z,2.05
2023-04-02T19:19:06.625Z,2.88
2023-04-02T19:21:51.541Z,1.05
2023-04-02T19:24:41.548Z,2.60
2023-04-02T19:27:19.337Z,1.17
2023-04-02T19:29:56.710Z,2.53
2023-04-02T19:32:31.104Z,1.33
2023-04-02T19:35:22.349Z,2.15
2023-04-02T19:38:00.596Z,1.13
2023-04-02T19:40:36.370Z,1.55
2023-04-02T19:43:03.070Z,2.28
2023-04-02T19:45:44.616Z,3.20
2023-04-02T19:48:21.136Z,2.28
2023-04-02T19:50:49.161Z,2.27
2023-04-02T19:53:16.813Z,1.92
2023-04-02T19:55:44.491Z,1.90
2023-04-02T19:58:29.416Z,1.02
2023-04-02T20:00:56.301Z,1.55
2023-04-02T20:03:23.674Z,1.70
2023-04-02T20:05:50.709Z,3.35
2023-04-02T20:08:17.399Z,4.25
2023-04-02T20:10:44.139Z,3.55
2023-04-02T20:13:10.829Z,1.75
2023-04-02T20:15:39.380Z,3.80
2023-04-02T20:18:06.056Z,1.92
2023-04-02T20:20:32.787Z,3.88
2023-04-02T20:22:59.359Z,1.42
2023-04-02T20:25:26.151Z,2.42
2023-04-02T20:27:52.895Z,1.07
2023-04-02T20:30:46.545Z,5.05
2023-04-02T20:33:13.125Z,2.50
2023-04-02T20:35:39.757Z,1.38
2023-04-02T20:38:08.344Z,1.05
2023-04-02T20:40:35.918Z,2.83
2023-04-02T20:43:02.524Z,1.65
2023-04-02T20:45:29.724Z,2.42
2023-04-02T20:47:56.629Z,3.50
2023-04-02T20:50:23.409Z,1.15
2023-04-02T20:52:49.772Z,1.63
2023-04-02T20:55:16.489Z,1.00
2023-04-02T20:57:43.106Z,1.10
2023-04-02T21:00:11.400Z,1.35
2023-04-02T21:02:38.048Z,3.50
2023-04-02T21:05:04.840Z,2.57
2023-04-02T21:07:40.547Z,0.85
2023-04-02T21:10:07.369Z,2.17
2023-04-02T21:12:33.880Z,3.20
2023-04-02T21:15:02.509Z,1.67
2023-04-02T21:17:29.708Z,1.00
2023-04-02T21:19:56.333Z,0.63
2023-04-02T21:22:22.927Z,1.92
2023-04-02T21:24:49.491Z,1.48
2023-04-02T21:27:16.858Z,2.25
2023-04-02T21:29:43.446Z,1.30
2023-04-02T21:32:21.337Z,3.60
2023-04-02T21:34:48.420Z,3.75
2023-04-02T21:37:14.958Z,1.17
2023-04-02T21:39:41.629Z,0.70
2023-04-02T21:42:08.304Z,0.70
2023-04-02T21:44:34.731Z,3.05
2023-04-02T21:47:01.322Z,1.90
2023-04-02T21:49:27.999Z,0.60
2023-04-02T21:51:54.617Z,1.98
2023-04-02T21:54:21.491Z,1.17
2023-04-02T21:56:48.387Z,2.88
2023-04-02T21:59:16.866Z,0.95
2023-04-02T22:01:49.135Z,2.28
2023-04-02T22:04:23.108Z,2.22
2023-04-02T22:06:51.016Z,2.73
2023-04-02T22:09:43.634Z,2.92
2023-04-02T22:12:11.014Z,2.03
2023-04-02T22:14:43.825Z,0.70
2023-04-02T22:17:10.497Z,2.05
2023-04-02T22:19:37.005Z,0.63
2023-04-02T22:22:03.811Z,2.13
2023-04-02T22:24:30.461Z,1.05
2023-04-02T22:26:56.986Z,1.40
2023-04-02T22:29:23.702Z,1.27
2023-04-02T22:31:50.629Z,2.70
2023-04-02T22:34:17.316Z,1.45
2023-04-02T22:36:43.896Z,0.98
2023-04-02T22:39:12.365Z,1.10
2023-04-02T22:41:39.448Z,0.98
2023-04-02T22:44:06.038Z,0.73
2023-04-02T22:46:33.004Z,0.98
2023-04-02T22:48:59.672Z,1.27
2023-04-02T22:51:27.990Z,1.35
2023-04-02T22:53:55.418Z,3.00
2023-04-02T22:56:24.814Z,0.87
2023-04-02T22:58:51.626Z,1.05
2023-04-02T23:01:25.717Z,0.90
2023-04-02T23:03:55.942Z,0.90
2023-04-02T23:06:27.110Z,1.38
2023-04-02T23:08:53.555Z,2.17
2023-04-02T23:11:23.458Z,1.40
2023-04-02T23:13:52.372Z,0.60
2023-04-02T23:16:19.864Z,2.65
2023-04-02T23:18:48.184Z,0.80
2023-04-02T23:21:16.515Z,1.87
2023-04-02T23:23:43.498Z,1.45
2023-04-02T23:26:21.844Z,1.10
2023-04-02T23:28:49.333Z,1.35
2023-04-02T23:31:18.995Z,1.05
2023-04-02T23:33:45.942Z,1.97
2023-04-02T23:36:23.327Z,3.22
2023-04-02T23:38:55.658Z,1.67
2023-04-02T23:41:24.326Z,1.17
2023-04-02T23:43:51.052Z,0.57
2023-04-02T23:46:17.590Z,1.87
2023-04-02T23:48:45.850Z,0.98
2023-04-02T23:51:13.354Z,2.15
2023-04-02T23:53:40.314Z,1.10
2023-04-02T23:56:07.030Z,1.38
2023-04-02T23:58:33.492Z,1.10
